Ana Sayfa
METAR-TAF:

METAR-TAF

Havaalanları :

Clinton, Kuzey Carolina, Amerika Birleşik Devletleri

Enlem: 34-58-32N, Boylam: 078-21-53W, yükseklik: 45 m

Güncel hava durumu gözlemi

Rapor saat 01:35 UTC de 33 dakika önce yapıldı.
Sakin rüzgar
Sıcaklık 17°C
Nem 100%
Basınç 1018 hPa
Görüş mesafesi: 16.1 km
Açık gökyüzü

METAR: KCTZ 070135Z AUTO 00000KT 10SM CLR 17/17 A3007 RMK AO2 T01650165

Saat: 22:08 (02:08 UTC)


TAF: eksik

4.000'den fazla havaalanı için hava durumu gözlemleri ve tahminleri (METAR ve TAF raporları).

Kullanılabilir istasyonlar harita üzerinde sarı ve kırmızı noktalarla gösterilir.

İstasyonun adını görmek için fareyi noktanın üzerinde gezdirin.

Sonrasında hava gözlem ve tahminlerini görmek için tıklayın.

Haritayı değiştirmek için: yaklaştırmak için siyah artı işaretli yeşil düğmeye ve uzaklaştırmak için de eksi işaretli düğmeye hızla tıklayın; bitişik haritalar için yeşil okları kullanın.


METAR-TAF: